Time;durP1;ratioP1;P1;durP2;ratioP2;P2;SDS_P1;SDS_P2;PMS_P1;PMS_P2;Temp;Humidity;BMP_temperature;BMP_pressure;BME280_temperature;BME280_humidity;BME280_pressure;Samples;Min_cycle;Max_cycle;Signal;HPM_P1;HPM_P2
2023/01/04 00:00:26;;;;;;;;;;;12.10;99.90;;;;;;5074409;28;19904;-75
2023/01/04 00:02:51;;;;;;;;;;;12.10;99.90;;;;;;5074184;28;20014;-74
2023/01/04 00:05:17;;;;;;;;;;;12.10;99.90;;;;;;5075526;28;19984;-75
2023/01/04 00:07:43;;;;;;;;;;;12.10;99.90;;;;;;5093965;28;19961;-74
2023/01/04 00:10:12;;;;;;;;;;;12.00;99.90;;;;;;5094439;28;20009;-75
2023/01/04 00:12:59;;;;;;;;;;;12.00;99.90;;;;;;5094236;28;19965;-75
2023/01/04 00:15:25;;;;;;;;;;;12.00;99.90;;;;;;5093978;28;19904;-77
2023/01/04 00:17:51;;;;;;;;;;;11.90;99.90;;;;;;5094130;28;19962;-76
2023/01/04 00:20:16;;;;;;;;;;;11.90;99.90;;;;;;5093972;28;20114;-76
2023/01/04 00:22:43;;;;;;;;;;;11.90;99.90;;;;;;5094172;28;20355;-75
2023/01/04 00:25:09;;;;;;;;;;;11.90;99.90;;;;;;5093820;28;19904;-76
2023/01/04 00:27:35;;;;;;;;;;;11.90;99.90;;;;;;5093542;28;19977;-74
2023/01/04 00:30:01;;;;;;;;;;;11.90;99.90;;;;;;5093706;28;19911;-74
2023/01/04 00:32:29;;;;;;;;;;;11.90;99.90;;;;;;5076387;28;20370;-75
2023/01/04 00:34:55;;;;;;;;;;;11.90;99.90;;;;;;5073568;28;19904;-75
2023/01/04 00:37:21;;;;;;;;;;;11.90;99.90;;;;;;5073406;28;20271;-75
2023/01/04 00:39:46;;;;;;;;;;;11.90;99.90;;;;;;5073372;28;19916;-75
2023/01/04 00:42:12;;;;;;;;;;;11.90;99.90;;;;;;5073038;28;20049;-72
2023/01/04 00:44:38;;;;;;;;;;;11.90;99.90;;;;;;5073038;28;19922;-76
2023/01/04 00:47:07;;;;;;;;;;;11.90;99.90;;;;;;5073263;28;20017;-74
2023/01/04 00:49:33;;;;;;;;;;;11.90;99.90;;;;;;5073171;28;19962;-75
2023/01/04 00:52:00;;;;;;;;;;;11.90;99.90;;;;;;5073009;28;20276;-75
2023/01/04 00:54:27;;;;;;;;;;;11.90;99.90;;;;;;5054990;28;20350;-75
2023/01/04 00:57:00;;;;;;;;;;;11.90;99.90;;;;;;5072630;28;19919;-74
2023/01/04 00:59:27;;;;;;;;;;;11.90;99.90;;;;;;5072713;28;20003;-75
2023/01/04 01:01:58;;;;;;;;;;;11.90;99.90;;;;;;5073479;28;20402;-76
2023/01/04 01:04:24;;;;;;;;;;;11.90;99.90;;;;;;5073472;28;19996;-74
2023/01/04 01:06:51;;;;;;;;;;;11.90;99.90;;;;;;5072932;28;20007;-75
2023/01/04 01:09:16;;;;;;;;;;;12.00;99.90;;;;;;5073007;28;19908;-75
2023/01/04 01:11:42;;;;;;;;;;;12.00;99.90;;;;;;5072718;28;20358;-75
2023/01/04 01:14:12;;;;;;;;;;;12.00;99.90;;;;;;5055127;28;19904;-75
2023/01/04 01:16:38;;;;;;;;;;;12.10;99.90;;;;;;5073115;28;19995;-74
2023/01/04 01:19:04;;;;;;;;;;;12.10;99.90;;;;;;5073257;28;20055;-74
2023/01/04 01:21:31;;;;;;;;;;;12.10;99.90;;;;;;5054677;28;20257;-75
2023/01/04 01:23:58;;;;;;;;;;;12.10;99.90;;;;;;5073034;28;19986;-75
2023/01/04 01:26:24;;;;;;;;;;;12.10;99.90;;;;;;5072453;28;20007;-74
2023/01/04 01:28:51;;;;;;;;;;;12.10;99.90;;;;;;5072889;28;19912;-74
2023/01/04 01:31:20;;;;;;;;;;;12.20;99.90;;;;;;5072351;28;19919;-76
2023/01/04 01:34:00;;;;;;;;;;;12.20;99.90;;;;;;5073124;28;19926;-76
2023/01/04 01:36:26;;;;;;;;;;;12.10;99.90;;;;;;5072825;28;19980;-75
2023/01/04 01:38:52;;;;;;;;;;;12.20;99.90;;;;;;5067636;28;20228;-75
2023/01/04 01:41:19;;;;;;;;;;;12.20;99.90;;;;;;5069227;28;20039;-75
2023/01/04 01:43:51;;;;;;;;;;;12.20;99.90;;;;;;5071855;28;20414;-75
2023/01/04 01:46:36;;;;;;;;;;;12.10;99.90;;;;;;5072583;28;19925;-74
2023/01/04 01:49:06;;;;;;;;;;;12.10;99.90;;;;;;5072808;28;20332;-75
2023/01/04 01:51:32;;;;;;;;;;;12.00;99.90;;;;;;5072384;28;19908;-76
2023/01/04 01:54:02;;;;;;;;;;;12.00;99.90;;;;;;5072237;28;19975;-75
2023/01/04 01:56:31;;;;;;;;;;;12.00;99.90;;;;;;5071975;28;19905;-75
2023/01/04 01:58:59;;;;;;;;;;;12.10;99.90;;;;;;5072191;28;19995;-75
2023/01/04 02:01:28;;;;;;;;;;;12.10;99.90;;;;;;5072114;28;19927;-75
2023/01/04 02:03:55;;;;;;;;;;;12.00;99.90;;;;;;5072024;28;20355;-75
2023/01/04 02:06:25;;;;;;;;;;;12.00;99.90;;;;;;5072509;28;19964;-75
2023/01/04 02:08:52;;;;;;;;;;;12.00;99.90;;;;;;5072276;28;19908;-75
2023/01/04 02:11:17;;;;;;;;;;;12.00;99.90;;;;;;5072049;28;20006;-75
2023/01/04 02:16:50;;;;;;;;;;;12.00;99.90;;;;;;5072121;28;19971;-76
2023/01/04 02:19:51;;;;;;;;;;;12.00;99.90;;;;;;5071593;28;19999;-74
2023/01/04 02:22:32;;;;;;;;;;;12.00;99.90;;;;;;4990931;28;19913;-75
2023/01/04 02:25:16;;;;;;;;;;;12.00;99.90;;;;;;5010107;28;19937;-75
2023/01/04 02:28:02;;;;;;;;;;;11.90;99.90;;;;;;5009715;28;19913;-75
2023/01/04 02:30:49;;;;;;;;;;;11.90;99.90;;;;;;5009955;28;19929;-75
2023/01/04 02:33:17;;;;;;;;;;;11.90;99.90;;;;;;5010340;28;19909;-74
2023/01/04 02:35:45;;;;;;;;;;;11.90;99.90;;;;;;5009842;28;20373;-73
2023/01/04 02:38:34;;;;;;;;;;;11.80;99.90;;;;;;5009875;28;20004;-74
2023/01/04 02:41:12;;;;;;;;;;;11.70;99.90;;;;;;5009551;28;19925;-74
2023/01/04 02:46:34;;;;;;;;;;;11.60;99.90;;;;;;5009849;28;19972;-75
2023/01/04 02:51:51;;;;;;;;;;;11.60;99.90;;;;;;5009915;28;19916;-76
2023/01/04 02:54:31;;;;;;;;;;;11.60;99.90;;;;;;5009517;28;20297;-75
2023/01/04 02:57:19;;;;;;;;;;;11.60;99.90;;;;;;5042098;28;19966;-76
2023/01/04 03:00:04;;;;;;;;;;;11.60;99.90;;;;;;5033279;28;20317;-71
2023/01/04 03:08:23;;;;;;;;;;;11.70;99.90;;;;;;5071638;28;19993;-75
2023/01/04 03:10:57;;;;;;;;;;;11.70;99.90;;;;;;5071171;28;19995;-75
2023/01/04 03:13:44;;;;;;;;;;;11.70;99.90;;;;;;5071159;28;20338;-74
2023/01/04 03:16:12;;;;;;;;;;;11.70;99.90;;;;;;5071016;28;19913;-75
2023/01/04 03:18:55;;;;;;;;;;;11.70;99.90;;;;;;5071093;28;19908;-75
2023/01/04 03:21:23;;;;;;;;;;;11.60;99.90;;;;;;5068946;28;19962;-75
2023/01/04 03:35:21;;;;;;;;;;;11.50;99.90;;;;;;5075474;28;19915;-76
2023/01/04 03:49:43;;;;;;;;;;;11.50;99.90;;;;;;5075233;28;19946;-73
2023/01/04 03:52:10;;;;;;;;;;;11.60;99.90;;;;;;5073861;28;19904;-75
2023/01/04 03:54:38;;;;;;;;;;;11.60;99.90;;;;;;5074664;28;19972;-75
2023/01/04 03:57:04;;;;;;;;;;;11.50;99.90;;;;;;5074668;28;20218;-75
2023/01/04 03:59:31;;;;;;;;;;;11.60;99.90;;;;;;5075057;28;20003;-75
2023/01/04 04:01:58;;;;;;;;;;;11.60;99.90;;;;;;5075420;28;19915;-76
2023/01/04 04:09:52;;;;;;;;;;;11.50;99.90;;;;;;5075343;28;19958;-75
2023/01/04 04:12:19;;;;;;;;;;;11.50;99.90;;;;;;5057105;28;19908;-75
2023/01/04 04:14:49;;;;;;;;;;;11.60;99.90;;;;;;5074549;28;19904;-75
2023/01/04 04:17:15;;;;;;;;;;;11.60;99.90;;;;;;5075213;28;19904;-74
2023/01/04 04:19:51;;;;;;;;;;;11.70;99.90;;;;;;5056981;28;19910;-76
2023/01/04 04:22:17;;;;;;;;;;;11.70;99.90;;;;;;5075049;28;19927;-75
2023/01/04 04:24:44;;;;;;;;;;;11.60;99.90;;;;;;5075663;28;19905;-75
2023/01/04 04:27:09;;;;;;;;;;;11.60;99.90;;;;;;5075323;28;19912;-75
2023/01/04 04:29:42;;;;;;;;;;;11.60;99.90;;;;;;5075554;28;20382;-76
2023/01/04 04:32:09;;;;;;;;;;;11.60;99.90;;;;;;5075486;28;19905;-75
2023/01/04 04:34:36;;;;;;;;;;;11.50;99.90;;;;;;5075162;28;19915;-75
2023/01/04 04:37:01;;;;;;;;;;;11.50;99.90;;;;;;5074514;28;19969;-75
2023/01/04 04:39:28;;;;;;;;;;;11.60;99.90;;;;;;5055991;28;20010;-75
2023/01/04 04:41:54;;;;;;;;;;;11.60;99.90;;;;;;5074422;28;19931;-76
2023/01/04 04:44:20;;;;;;;;;;;11.50;99.90;;;;;;5074804;28;19916;-75
2023/01/04 04:46:48;;;;;;;;;;;11.60;99.90;;;;;;5056882;28;19966;-72
2023/01/04 04:49:15;;;;;;;;;;;11.60;99.90;;;;;;5075122;28;19971;-74
2023/01/04 04:51:50;;;;;;;;;;;11.60;99.90;;;;;;5074831;28;20494;-75
2023/01/04 04:54:19;;;;;;;;;;;11.50;99.90;;;;;;5074768;28;19962;-76
2023/01/04 04:57:07;;;;;;;;;;;11.60;99.90;;;;;;5074794;28;19911;-76
2023/01/04 04:59:33;;;;;;;;;;;11.60;99.90;;;;;;5056548;28;19905;-76
2023/01/04 05:01:58;;;;;;;;;;;11.60;99.90;;;;;;5074603;28;19904;-74
2023/01/04 05:04:24;;;;;;;;;;;11.60;99.90;;;;;;5056686;28;20352;-75
2023/01/04 05:06:51;;;;;;;;;;;11.50;99.90;;;;;;5074910;28;19912;-76
2023/01/04 05:09:18;;;;;;;;;;;11.60;99.90;;;;;;5074331;28;19958;-76
2023/01/04 05:14:29;;;;;;;;;;;11.60;99.90;;;;;;5074853;28;19927;-75
2023/01/04 05:16:55;;;;;;;;;;;11.60;99.90;;;;;;5074875;28;19956;-75
2023/01/04 05:19:21;;;;;;;;;;;11.60;99.90;;;;;;5074850;28;19904;-75
2023/01/04 05:21:47;;;;;;;;;;;11.70;99.90;;;;;;5074731;28;19904;-75
2023/01/04 05:24:12;;;;;;;;;;;11.70;99.90;;;;;;5056733;28;19904;-75
2023/01/04 05:26:47;;;;;;;;;;;11.70;99.90;;;;;;5074494;28;19923;-76
2023/01/04 05:32:07;;;;;;;;;;;11.70;99.90;;;;;;5074754;28;19993;-75
2023/01/04 05:34:40;;;;;;;;;;;11.70;99.90;;;;;;5074476;28;19999;-71
2023/01/04 05:37:09;;;;;;;;;;;11.70;99.90;;;;;;5074954;28;19904;-75
2023/01/04 05:39:40;;;;;;;;;;;11.70;99.90;;;;;;5074642;28;19908;-73
2023/01/04 05:42:25;;;;;;;;;;;11.70;99.90;;;;;;5037365;28;19904;-74
2023/01/04 05:45:00;;;;;;;;;;;11.70;99.90;;;;;;5054248;28;19992;-75
2023/01/04 05:47:29;;;;;;;;;;;11.70;99.90;;;;;;5036265;28;19913;-75
2023/01/04 05:49:55;;;;;;;;;;;11.70;99.90;;;;;;5054068;28;19911;-75
2023/01/04 05:52:30;;;;;;;;;;;11.70;99.90;;;;;;5053105;28;20277;-73
2023/01/04 05:54:57;;;;;;;;;;;11.70;99.90;;;;;;5054105;28;19944;-75
2023/01/04 05:57:26;;;;;;;;;;;11.70;99.90;;;;;;5053705;28;19931;-76
2023/01/04 05:59:59;;;;;;;;;;;11.70;99.90;;;;;;5054011;28;19991;-72
2023/01/04 06:02:26;;;;;;;;;;;11.70;99.90;;;;;;5054743;28;19912;-75
2023/01/04 06:04:59;;;;;;;;;;;11.70;99.90;;;;;;5053929;28;19905;-76
2023/01/04 06:07:26;;;;;;;;;;;11.70;99.90;;;;;;5053545;28;19913;-75
2023/01/04 06:09:52;;;;;;;;;;;11.80;99.90;;;;;;5036307;28;19909;-76
2023/01/04 06:12:19;;;;;;;;;;;11.80;99.90;;;;;;5073502;28;19911;-75
2023/01/04 06:14:45;;;;;;;;;;;11.70;99.90;;;;;;5073899;28;19980;-75
2023/01/04 06:17:10;;;;;;;;;;;11.70;99.90;;;;;;5074100;28;19919;-77
2023/01/04 06:19:36;;;;;;;;;;;11.70;99.90;;;;;;5055686;28;19958;-75
2023/01/04 06:22:04;;;;;;;;;;;11.60;99.90;;;;;;5073195;28;19957;-75
2023/01/04 06:24:30;;;;;;;;;;;11.60;99.90;;;;;;5072747;28;19955;-75
2023/01/04 06:26:55;;;;;;;;;;;11.60;99.90;;;;;;5072921;28;20051;-76
2023/01/04 06:29:27;;;;;;;;;;;11.60;99.90;;;;;;5072658;28;19942;-76
2023/01/04 06:31:53;;;;;;;;;;;11.60;99.90;;;;;;5072415;28;19904;-74
2023/01/04 06:34:19;;;;;;;;;;;11.70;99.90;;;;;;5073127;28;19905;-73
2023/01/04 06:36:45;;;;;;;;;;;11.70;99.90;;;;;;5073361;28;19908;-73
2023/01/04 06:39:11;;;;;;;;;;;11.80;99.90;;;;;;5073242;28;20375;-73
2023/01/04 06:41:37;;;;;;;;;;;12.00;99.90;;;;;;5073183;28;19923;-73
2023/01/04 06:44:04;;;;;;;;;;;12.10;99.90;;;;;;5073139;28;19916;-73
2023/01/04 06:46:30;;;;;;;;;;;12.20;99.90;;;;;;5073244;28;19920;-73
2023/01/04 06:48:55;;;;;;;;;;;12.20;99.90;;;;;;5055117;28;19908;-73
2023/01/04 06:51:21;;;;;;;;;;;12.40;99.90;;;;;;5072552;28;20258;-73
2023/01/04 06:53:47;;;;;;;;;;;12.60;99.90;;;;;;5073063;28;19958;-73
2023/01/04 06:56:13;;;;;;;;;;;12.90;99.90;;;;;;5072746;28;19944;-73
2023/01/04 06:58:39;;;;;;;;;;;12.90;99.90;;;;;;5072903;28;20304;-73
2023/01/04 07:01:05;;;;;;;;;;;12.80;99.90;;;;;;5071507;28;19960;-73
2023/01/04 07:03:30;;;;;;;;;;;12.80;99.90;;;;;;5071849;28;19904;-73
2023/01/04 07:05:56;;;;;;;;;;;13.00;99.90;;;;;;5072311;28;19979;-73
2023/01/04 07:08:23;;;;;;;;;;;13.10;99.90;;;;;;5072195;28;20208;-73
2023/01/04 07:10:50;;;;;;;;;;;13.10;99.90;;;;;;5072309;28;19915;-73
2023/01/04 07:13:17;;;;;;;;;;;13.30;99.90;;;;;;5071959;28;19908;-73
2023/01/04 07:15:43;;;;;;;;;;;13.40;99.90;;;;;;5054242;28;20248;-75
2023/01/04 07:18:09;;;;;;;;;;;13.30;99.90;;;;;;5073197;28;19904;-75
2023/01/04 07:20:38;;;;;;;;;;;13.30;99.90;;;;;;5072535;28;19905;-75
2023/01/04 07:23:04;;;;;;;;;;;13.30;99.90;;;;;;5072970;28;19904;-74
2023/01/04 07:25:30;;;;;;;;;;;13.30;99.90;;;;;;5072488;28;20010;-74
2023/01/04 07:27:56;;;;;;;;;;;13.00;99.90;;;;;;5072685;28;20478;-74
2023/01/04 07:30:22;;;;;;;;;;;13.00;99.90;;;;;;5072514;28;19905;-77
2023/01/04 07:32:50;;;;;;;;;;;12.90;99.90;;;;;;5072669;28;19910;-74
2023/01/04 07:35:16;;;;;;;;;;;12.90;99.90;;;;;;5073060;28;20344;-73
2023/01/04 07:37:42;;;;;;;;;;;12.80;99.90;;;;;;5072506;28;19958;-76
2023/01/04 07:40:11;;;;;;;;;;;12.70;99.90;;;;;;5072872;28;19919;-77
2023/01/04 07:42:38;;;;;;;;;;;12.60;99.90;;;;;;5072743;28;20348;-75
2023/01/04 07:45:04;;;;;;;;;;;12.70;99.90;;;;;;5072470;28;19955;-75
2023/01/04 07:47:32;;;;;;;;;;;12.60;99.90;;;;;;5072774;28;19912;-75
2023/01/04 07:49:58;;;;;;;;;;;12.60;99.90;;;;;;5072489;28;20287;-74
2023/01/04 07:52:28;;;;;;;;;;;12.70;99.90;;;;;;5054423;28;20014;-70
2023/01/04 07:54:54;;;;;;;;;;;12.70;99.90;;;;;;5072340;28;20003;-74
2023/01/04 07:57:20;;;;;;;;;;;12.90;99.90;;;;;;5071314;28;20012;-74
2023/01/04 07:59:54;;;;;;;;;;;13.10;99.90;;;;;;5071238;28;20271;-73
2023/01/04 08:02:20;;;;;;;;;;;13.30;99.90;;;;;;5071498;28;19905;-75
2023/01/04 08:04:46;;;;;;;;;;;13.50;99.90;;;;;;5071512;28;19987;-74
2023/01/04 08:07:12;;;;;;;;;;;13.50;99.90;;;;;;5071373;28;20268;-74
2023/01/04 08:09:38;;;;;;;;;;;13.50;99.90;;;;;;5070111;28;19983;-74
2023/01/04 08:12:10;;;;;;;;;;;13.70;99.90;;;;;;5072168;28;19940;-73
2023/01/04 08:14:46;;;;;;;;;;;13.70;99.90;;;;;;5072204;28;19927;-75
2023/01/04 08:17:12;;;;;;;;;;;13.80;99.90;;;;;;5075403;28;20004;-74
2023/01/04 08:19:38;;;;;;;;;;;14.00;99.90;;;;;;5075523;28;19987;-74
2023/01/04 08:22:05;;;;;;;;;;;14.20;99.90;;;;;;5057143;28;20399;-74
2023/01/04 08:24:32;;;;;;;;;;;14.30;99.90;;;;;;5057388;28;19981;-71
2023/01/04 08:26:58;;;;;;;;;;;14.40;99.90;;;;;;5075535;28;19916;-75
2023/01/04 08:29:24;;;;;;;;;;;14.40;99.90;;;;;;5076061;28;20003;-75
2023/01/04 08:31:49;;;;;;;;;;;14.60;99.90;;;;;;5075881;28;19905;-75
2023/01/04 08:34:24;;;;;;;;;;;14.60;99.90;;;;;;5075796;28;19960;-71
2023/01/04 08:36:52;;;;;;;;;;;14.70;99.90;;;;;;5075478;28;19912;-75
2023/01/04 08:39:39;;;;;;;;;;;15.00;99.90;;;;;;5076074;28;19912;-77
2023/01/04 08:42:15;;;;;;;;;;;15.10;99.90;;;;;;5075287;28;19908;-76
2023/01/04 08:44:45;;;;;;;;;;;15.10;99.90;;;;;;5074458;28;19953;-76
2023/01/04 08:47:14;;;;;;;;;;;15.20;99.90;;;;;;5075724;28;19924;-76
2023/01/04 08:49:40;;;;;;;;;;;15.30;99.90;;;;;;5075071;28;19926;-74
2023/01/04 08:52:08;;;;;;;;;;;15.20;99.90;;;;;;5074267;28;19998;-74
2023/01/04 08:54:39;;;;;;;;;;;15.10;99.90;;;;;;5081697;22;20329;-71
2023/01/04 08:57:15;;;;;;;;;;;15.30;99.90;;;;;;5074632;28;19908;-75
2023/01/04 09:00:10;;;;;;;;;;;15.40;99.90;;;;;;5056191;28;20366;-71
2023/01/04 09:02:36;;;;;;;;;;;15.60;99.90;;;;;;5092641;28;20000;-73
2023/01/04 09:05:02;;;;;;;;;;;15.80;99.90;;;;;;5094517;28;20325;-75
2023/01/04 09:07:29;;;;;;;;;;;15.80;99.90;;;;;;5094302;28;19912;-74
2023/01/04 09:09:56;;;;;;;;;;;15.80;99.90;;;;;;5076281;28;19923;-75
2023/01/04 09:12:22;;;;;;;;;;;15.80;99.90;;;;;;5093704;28;19965;-74
2023/01/04 09:14:48;;;;;;;;;;;15.60;99.90;;;;;;5075237;28;19904;-74
2023/01/04 09:17:17;;;;;;;;;;;15.80;99.90;;;;;;5079941;28;19904;-74
2023/01/04 09:19:42;;;;;;;;;;;16.10;99.90;;;;;;5074173;28;19963;-74
2023/01/04 09:22:09;;;;;;;;;;;16.50;99.90;;;;;;5075584;28;19912;-71
2023/01/04 09:24:35;;;;;;;;;;;16.80;99.90;;;;;;5073848;28;19915;-73
2023/01/04 09:27:01;;;;;;;;;;;17.00;99.90;;;;;;5073267;28;19912;-75
2023/01/04 09:29:27;;;;;;;;;;;17.10;99.90;;;;;;5073349;28;19904;-75
2023/01/04 09:31:53;;;;;;;;;;;17.30;99.90;;;;;;5085946;28;19927;-73
2023/01/04 09:34:19;;;;;;;;;;;17.40;99.90;;;;;;5080535;28;19983;-74
2023/01/04 09:36:46;;;;;;;;;;;17.60;99.90;;;;;;5073673;28;19950;-75
2023/01/04 09:39:12;;;;;;;;;;;17.80;99.90;;;;;;5054316;28;20002;-75
2023/01/04 09:41:56;;;;;;;;;;;18.00;99.90;;;;;;5073460;28;20346;-76
2023/01/04 09:44:26;;;;;;;;;;;18.00;99.90;;;;;;5073789;28;19920;-76
2023/01/04 09:47:00;;;;;;;;;;;18.30;99.90;;;;;;5073909;28;20284;-78
2023/01/04 09:49:47;;;;;;;;;;;18.40;99.90;;;;;;5074535;28;19947;-73
2023/01/04 09:52:20;;;;;;;;;;;18.50;99.90;;;;;;5073346;28;19999;-76
2023/01/04 09:54:59;;;;;;;;;;;18.40;99.90;;;;;;5098939;22;20220;-75
2023/01/04 09:57:45;;;;;;;;;;;18.70;99.90;;;;;;5094488;28;19904;-75
2023/01/04 10:00:20;;;;;;;;;;;18.90;99.90;;;;;;5080302;28;19911;-78
2023/01/04 10:02:48;;;;;;;;;;;19.00;99.90;;;;;;5056636;28;19909;-75
2023/01/04 10:05:18;;;;;;;;;;;19.20;99.90;;;;;;5074488;28;20240;-74
2023/01/04 10:07:44;;;;;;;;;;;19.20;99.90;;;;;;5073910;28;19912;-74
2023/01/04 10:10:14;;;;;;;;;;;19.20;99.90;;;;;;5058926;28;20197;-73
2023/01/04 10:12:40;;;;;;;;;;;19.40;99.90;;;;;;5094060;28;20360;-75
2023/01/04 10:15:12;;;;;;;;;;;19.50;99.90;;;;;;5075884;28;20371;-75
2023/01/04 10:17:50;;;;;;;;;;;19.70;99.90;;;;;;5093732;28;20304;-75
2023/01/04 10:20:19;;;;;;;;;;;19.80;99.90;;;;;;5094192;28;19911;-73
2023/01/04 10:22:48;;;;;;;;;;;20.00;99.90;;;;;;5093656;28;19911;-73
2023/01/04 10:25:19;;;;;;;;;;;19.90;99.90;;;;;;5075172;28;19961;-74
2023/01/04 10:27:48;;;;;;;;;;;19.90;99.90;;;;;;5093116;28;19919;-74
2023/01/04 10:30:23;;;;;;;;;;;19.90;99.90;;;;;;5093326;28;19904;-75
2023/01/04 10:32:54;;;;;;;;;;;19.90;99.90;;;;;;5074721;28;20267;-74
2023/01/04 10:35:23;;;;;;;;;;;19.70;99.90;;;;;;5093633;28;20297;-75
2023/01/04 10:37:51;;;;;;;;;;;19.50;99.90;;;;;;5075621;28;19908;-75
2023/01/04 10:40:20;;;;;;;;;;;19.20;99.90;;;;;;5092603;28;19937;-75
2023/01/04 10:42:54;;;;;;;;;;;18.90;99.90;;;;;;5093429;28;19904;-73
2023/01/04 10:45:20;;;;;;;;;;;18.40;99.90;;;;;;5092613;28;19908;-75
2023/01/04 10:47:49;;;;;;;;;;;18.20;99.90;;;;;;5084129;28;20311;-78
2023/01/04 10:50:34;;;;;;;;;;;18.10;99.90;;;;;;5092790;28;19904;-74
2023/01/04 10:53:06;;;;;;;;;;;18.20;99.90;;;;;;5092723;28;19916;-73
2023/01/04 10:55:42;;;;;;;;;;;18.40;99.90;;;;;;5093358;28;20401;-68
2023/01/04 10:58:11;;;;;;;;;;;18.70;99.90;;;;;;5092266;28;19912;-71
2023/01/04 11:00:46;;;;;;;;;;;19.10;99.90;;;;;;5092665;28;19962;-73
2023/01/04 11:03:12;;;;;;;;;;;19.30;99.90;;;;;;5092884;28;19943;-71
2023/01/04 11:05:53;;;;;;;;;;;19.30;99.90;;;;;;5093451;28;19926;-72
2023/01/04 11:08:23;;;;;;;;;;;19.20;99.90;;;;;;5092989;28;19912;-72
2023/01/04 11:10:51;;;;;;;;;;;18.90;99.90;;;;;;5089215;28;19908;-69
2023/01/04 11:13:17;;;;;;;;;;;18.70;99.90;;;;;;5081974;28;19914;-72
2023/01/04 11:15:44;;;;;;;;;;;18.60;99.90;;;;;;5081778;28;19904;-70
2023/01/04 11:18:12;;;;;;;;;;;18.50;99.90;;;;;;5086439;28;20410;-71
2023/01/04 11:20:42;;;;;;;;;;;18.40;99.90;;;;;;5092932;28;19904;-67
2023/01/04 11:23:08;;;;;;;;;;;18.30;99.90;;;;;;5093343;28;19908;-72
2023/01/04 11:25:37;;;;;;;;;;;18.20;99.90;;;;;;5074717;28;19991;-68
2023/01/04 11:28:06;;;;;;;;;;;18.00;99.90;;;;;;5078821;28;19917;-68
2023/01/04 11:30:41;;;;;;;;;;;18.00;99.90;;;;;;5088255;28;19973;-71
2023/01/04 11:33:13;;;;;;;;;;;17.90;99.90;;;;;;5072882;28;19911;-72
2023/01/04 11:35:41;;;;;;;;;;;17.90;99.90;;;;;;5073270;28;19954;-74
2023/01/04 11:38:13;;;;;;;;;;;17.90;99.90;;;;;;5073013;28;19904;-72
2023/01/04 11:40:40;;;;;;;;;;;17.90;99.90;;;;;;5079498;28;19912;-74
2023/01/04 11:43:32;;;;;;;;;;;17.70;99.90;;;;;;5093007;28;19904;-73
2023/01/04 11:46:00;;;;;;;;;;;17.70;99.90;;;;;;4991372;28;20053;-73
2023/01/04 11:48:42;;;;;;;;;;;17.70;99.90;;;;;;4991373;28;19914;-72
2023/01/04 11:51:41;;;;;;;;;;;17.70;99.90;;;;;;4991952;28;19910;-74
2023/01/04 11:54:12;;;;;;;;;;;17.80;99.90;;;;;;4967217;28;19993;-74
2023/01/04 11:56:39;;;;;;;;;;;17.50;99.90;;;;;;4975616;28;19958;-74
2023/01/04 11:59:13;;;;;;;;;;;17.20;99.90;;;;;;4958632;28;19906;-74
2023/01/04 12:01:43;;;;;;;;;;;17.00;99.90;;;;;;4984623;28;19910;-74
2023/01/04 12:04:15;;;;;;;;;;;16.90;99.90;;;;;;4977708;28;19906;-73
2023/01/04 12:06:47;;;;;;;;;;;17.00;99.90;;;;;;4994521;28;20295;-73
2023/01/04 12:09:14;;;;;;;;;;;17.10;99.90;;;;;;4994496;28;19913;-73
2023/01/04 12:11:41;;;;;;;;;;;17.00;99.90;;;;;;4979543;28;19910;-75
2023/01/04 12:14:21;;;;;;;;;;;17.00;99.90;;;;;;4975068;28;19972;-72
2023/01/04 12:16:56;;;;;;;;;;;17.00;99.90;;;;;;4975863;28;20157;-73
2023/01/04 12:19:23;;;;;;;;;;;17.00;99.90;;;;;;4975353;28;19906;-73
2023/01/04 12:21:50;;;;;;;;;;;17.00;99.90;;;;;;4977873;28;19906;-73
2023/01/04 12:24:18;;;;;;;;;;;16.90;99.90;;;;;;4994842;28;19953;-73
2023/01/04 12:26:44;;;;;;;;;;;16.80;99.90;;;;;;4994439;28;19961;-79
2023/01/04 12:29:22;;;;;;;;;;;16.90;99.90;;;;;;4994067;28;19910;-71
2023/01/04 12:31:52;;;;;;;;;;;16.90;99.90;;;;;;5087649;28;19912;-72
2023/01/04 12:34:22;;;;;;;;;;;16.90;99.90;;;;;;5096030;28;19952;-72
2023/01/04 12:37:01;;;;;;;;;;;16.90;99.90;;;;;;5096457;28;19908;-72
2023/01/04 12:39:34;;;;;;;;;;;16.90;99.90;;;;;;5077840;28;19915;-72
2023/01/04 12:42:00;;;;;;;;;;;16.90;99.90;;;;;;5095967;28;19970;-73
2023/01/04 12:44:38;;;;;;;;;;;16.80;99.90;;;;;;5095888;28;19939;-71
2023/01/04 12:50:11;;;;;;;;;;;16.50;99.90;;;;;;5095617;28;19911;-71
2023/01/04 12:52:38;;;;;;;;;;;16.50;99.90;;;;;;5095335;28;19904;-72
2023/01/04 12:55:23;;;;;;;;;;;16.40;99.90;;;;;;5094975;28;19985;-71
2023/01/04 12:57:49;;;;;;;;;;;16.40;99.90;;;;;;5094510;28;19943;-72
2023/01/04 13:00:15;;;;;;;;;;;16.50;99.90;;;;;;5094227;28;19955;-72
2023/01/04 13:02:46;;;;;;;;;;;16.70;99.90;;;;;;5094060;28;19907;-73
2023/01/04 13:05:18;;;;;;;;;;;16.70;99.90;;;;;;5076755;28;19938;-71
2023/01/04 13:07:57;;;;;;;;;;;16.70;99.90;;;;;;5076654;28;19954;-71
2023/01/04 13:10:23;;;;;;;;;;;17.00;99.90;;;;;;5095251;28;20002;-72
2023/01/04 13:12:54;;;;;;;;;;;17.40;99.90;;;;;;5094738;28;19951;-72
2023/01/04 13:15:40;;;;;;;;;;;17.60;99.90;;;;;;5094934;28;19904;-72
2023/01/04 13:18:24;;;;;;;;;;;17.80;99.90;;;;;;5095447;28;19904;-72
2023/01/04 13:20:50;;;;;;;;;;;18.10;99.90;;;;;;5075438;28;19905;-72
2023/01/04 13:23:17;;;;;;;;;;;18.20;99.90;;;;;;5075062;28;20238;-71
2023/01/04 13:25:44;;;;;;;;;;;18.50;99.90;;;;;;5074532;28;19911;-71
2023/01/04 13:28:16;;;;;;;;;;;18.60;99.90;;;;;;5074747;28;19912;-71
2023/01/04 13:30:42;;;;;;;;;;;18.60;99.90;;;;;;5077482;28;19987;-73
2023/01/04 13:33:28;;;;;;;;;;;18.70;99.90;;;;;;5095160;28;19943;-73
2023/01/04 13:36:09;;;;;;;;;;;18.70;99.90;;;;;;5094527;28;19940;-73
2023/01/04 13:38:35;;;;;;;;;;;18.60;99.90;;;;;;5095117;28;19997;-71
2023/01/04 13:41:01;;;;;;;;;;;18.50;99.90;;;;;;5076837;28;19910;-72
2023/01/04 13:43:43;;;;;;;;;;;18.40;99.90;;;;;;5094476;28;20282;-72
2023/01/04 13:46:09;;;;;;;;;;;18.50;99.90;;;;;;5095331;28;19987;-71
2023/01/04 13:48:36;;;;;;;;;;;18.50;99.90;;;;;;5094799;28;20007;-71
2023/01/04 13:51:03;;;;;;;;;;;18.50;99.90;;;;;;5094655;28;19904;-72
2023/01/04 13:53:31;;;;;;;;;;;18.60;99.90;;;;;;5094119;28;20309;-71
2023/01/04 13:56:00;;;;;;;;;;;18.60;99.90;;;;;;5094149;28;19904;-73
2023/01/04 13:58:29;;;;;;;;;;;18.90;99.90;;;;;;5093991;28;20053;-71
2023/01/04 14:00:58;;;;;;;;;;;19.20;99.90;;;;;;5092911;28;19947;-69
2023/01/04 14:03:32;;;;;;;;;;;19.40;99.90;;;;;;5094080;28;20363;-71
2023/01/04 14:06:09;;;;;;;;;;;19.50;99.90;;;;;;5094195;28;19914;-71
2023/01/04 14:08:40;;;;;;;;;;;19.50;99.90;;;;;;5076389;28;19969;-71
2023/01/04 14:11:57;;;;;;;;;;;19.50;99.90;;;;;;5094292;28;19923;-70
2023/01/04 14:14:02;;;;;;;;;;;19.60;99.90;;;;;;5086065;28;19908;-72
2023/01/04 14:16:27;;;;;;;;;;;19.50;99.90;;;;;;5094197;28;19912;-72
2023/01/04 14:18:53;;;;;;;;;;;19.80;99.90;;;;;;5094210;28;19911;-72
2023/01/04 14:21:31;;;;;;;;;;;19.90;99.90;;;;;;5093978;28;19904;-71
2023/01/04 14:23:57;;;;;;;;;;;20.00;99.90;;;;;;5094254;28;19990;-72
2023/01/04 14:26:30;;;;;;;;;;;20.10;99.90;;;;;;5092857;28;20014;-72
2023/01/04 14:28:56;;;;;;;;;;;20.00;99.90;;;;;;5081383;28;20320;-72
2023/01/04 14:31:25;;;;;;;;;;;19.90;99.90;;;;;;5073990;28;20382;-71
2023/01/04 14:33:52;;;;;;;;;;;19.60;99.90;;;;;;5073683;28;19905;-72
2023/01/04 14:36:29;;;;;;;;;;;19.50;99.90;;;;;;5073563;28;19951;-73
2023/01/04 14:39:05;;;;;;;;;;;19.40;99.90;;;;;;5073572;28;19904;-73
2023/01/04 14:41:50;;;;;;;;;;;19.40;99.90;;;;;;5088027;28;19903;-73
2023/01/04 14:44:17;;;;;;;;;;;19.40;99.90;;;;;;5093548;28;19951;-72
2023/01/04 14:46:45;;;;;;;;;;;19.40;99.90;;;;;;5093616;28;19984;-73
2023/01/04 14:49:12;;;;;;;;;;;19.50;99.90;;;;;;5093281;28;19904;-73
2023/01/04 14:51:43;;;;;;;;;;;19.20;99.90;;;;;;5074864;28;20109;-72
2023/01/04 14:54:10;;;;;;;;;;;19.30;99.90;;;;;;5092972;28;19999;-70
2023/01/04 14:56:37;;;;;;;;;;;19.30;99.90;;;;;;5093708;28;20462;-74
2023/01/04 14:59:05;;;;;;;;;;;19.10;99.90;;;;;;5092931;28;20267;-73
2023/01/04 15:01:31;;;;;;;;;;;18.90;99.90;;;;;;5093185;28;19910;-72
2023/01/04 15:03:57;;;;;;;;;;;18.80;99.90;;;;;;5092901;28;19904;-74
2023/01/04 15:06:23;;;;;;;;;;;18.60;99.90;;;;;;5092967;28;19908;-73
2023/01/04 15:08:50;;;;;;;;;;;18.60;99.90;;;;;;5074841;28;19988;-74
2023/01/04 15:11:16;;;;;;;;;;;18.60;99.90;;;;;;5092928;28;20354;-71
2023/01/04 15:13:43;;;;;;;;;;;18.50;99.90;;;;;;5092441;28;20073;-72
2023/01/04 15:16:10;;;;;;;;;;;18.40;99.90;;;;;;5092816;28;19915;-73
2023/01/04 15:18:36;;;;;;;;;;;18.20;99.90;;;;;;5093123;28;20037;-72
2023/01/04 15:21:02;;;;;;;;;;;18.10;99.90;;;;;;5093085;28;19951;-72
2023/01/04 15:23:28;;;;;;;;;;;17.90;99.90;;;;;;5093132;28;20283;-72